createdAt,value
2022-08-05T00:03:07.686Z,3.43
2022-08-05T00:17:59.999Z,3.60
2022-08-05T00:32:51.605Z,3.17
2022-08-05T00:47:57.438Z,3.24
2022-08-05T01:02:37.277Z,3.19
2022-08-05T01:17:40.140Z,3.30
2022-08-05T01:32:34.847Z,3.11
2022-08-05T01:47:25.971Z,3.39
2022-08-05T02:02:17.834Z,3.56
2022-08-05T02:17:29.773Z,4.47
2022-08-05T02:32:06.411Z,4.20
2022-08-05T02:47:00.858Z,4.63
2022-08-05T03:01:51.326Z,4.87
2022-08-05T03:16:43.293Z,4.40
2022-08-05T03:31:57.136Z,4.46
2022-08-05T03:46:29.704Z,4.89
2022-08-05T04:01:20.915Z,5.39
2022-08-05T04:16:11.155Z,5.42
2022-08-05T04:31:02.300Z,5.06
2022-08-05T04:45:54.779Z,4.27
2022-08-05T05:00:45.710Z,3.23
2022-08-05T05:16:01.777Z,3.50
2022-08-05T05:30:33.564Z,3.07
2022-08-05T05:45:22.783Z,3.06
2022-08-05T06:00:15.283Z,3.24
2022-08-05T06:15:08.144Z,3.10
2022-08-05T06:30:04.493Z,2.81
2022-08-05T06:44:51.849Z,2.89
2022-08-05T06:59:55.085Z,2.60
2022-08-05T07:14:55.809Z,2.58
2022-08-05T07:30:22.331Z,2.43
2022-08-05T07:44:46.727Z,3.00
2022-08-05T07:59:41.242Z,2.50
2022-08-05T08:14:31.583Z,2.62
2022-08-05T08:30:03.921Z,2.47
2022-08-05T08:45:18.027Z,2.52
2022-08-05T08:59:19.782Z,2.31
2022-08-05T09:14:54.727Z,2.26
2022-08-05T09:29:00.838Z,2.03
2022-08-05T09:43:52.857Z,2.21
2022-08-05T09:58:45.359Z,2.36
2022-08-05T10:13:47.860Z,2.27
2022-08-05T10:28:31.423Z,2.43
2022-08-05T10:43:24.245Z,2.11
2022-08-05T10:58:17.944Z,2.20
2022-08-05T11:13:09.917Z,2.29
2022-08-05T11:28:12.208Z,2.23
2022-08-05T11:43:09.117Z,2.56
2022-08-05T11:58:09.531Z,2.58
2022-08-05T12:12:59.921Z,2.61
2022-08-05T12:27:53.025Z,2.60
2022-08-05T12:42:43.068Z,2.59
2022-08-05T12:58:38.451Z,2.93
2022-08-05T13:12:28.346Z,2.77
2022-08-05T13:27:38.341Z,3.41
2022-08-05T13:42:27.089Z,3.12
2022-08-05T13:57:19.580Z,3.57
2022-08-05T14:12:17.512Z,3.53
2022-08-05T14:27:17.480Z,3.32
2022-08-05T14:42:19.289Z,3.82
2022-08-05T14:56:49.213Z,4.20
2022-08-05T15:11:53.178Z,4.26
2022-08-05T15:26:34.835Z,4.10
2022-08-05T16:11:43.698Z,3.01
2022-08-05T16:26:35.381Z,3.17
2022-08-05T16:56:32.883Z,6.36
2022-08-05T17:11:25.704Z,4.59
2022-08-05T17:26:15.824Z,4.13
2022-08-05T17:41:11.474Z,4.14
2022-08-05T17:55:59.157Z,4.30
2022-08-05T18:10:50.164Z,5.49
2022-08-05T18:25:44.072Z,6.18
2022-08-05T18:41:53.374Z,6.37
2022-08-05T18:55:23.424Z,6.37
2022-08-05T19:10:16.304Z,5.61
2022-08-05T19:25:07.449Z,4.32
2022-08-05T19:55:06.837Z,2.41
2022-08-05T20:10:00.340Z,2.53
2022-08-05T20:24:52.450Z,2.06
2022-08-05T20:39:44.512Z,2.20
2022-08-05T20:54:55.546Z,1.48
2022-08-05T21:09:29.190Z,1.44
2022-08-05T21:24:21.045Z,1.40
2022-08-05T21:54:17.691Z,1.40
2022-08-05T22:09:14.754Z,1.58
2022-08-05T22:24:40.648Z,1.62
2022-08-05T22:39:15.776Z,1.74
2022-08-05T22:54:06.722Z,1.60
2022-08-05T23:09:27.212Z,1.54
2022-08-05T23:23:50.517Z,1.70
2022-08-05T23:38:43.434Z,1.60
2022-08-05T23:53:46.383Z,1.59
